Time;durP1;ratioP1;P1;durP2;ratioP2;P2;SDS_P1;SDS_P2;PMS_P1;PMS_P2;Temp;Humidity;BMP_temperature;BMP_pressure;BME280_temperature;BME280_humidity;BME280_pressure;Samples;Min_cycle;Max_cycle;Signal;HPM_P1;HPM_P2
2021/12/26 00:00:27;;;;;;;18.55;11.40;;;;;;;2.55;71.73;94419.97;5115960;27;20034;-71
2021/12/26 00:02:53;;;;;;;16.25;10.05;;;;;;;2.63;71.39;94430.63;5098767;27;20046;-71
2021/12/26 00:05:19;;;;;;;20.60;11.00;;;;;;;2.49;71.40;94407.50;5113362;28;20036;-71
2021/12/26 00:07:45;;;;;;;17.27;10.60;;;;;;;2.56;71.21;94421.59;5113612;28;20048;-71
2021/12/26 00:10:11;;;;;;;19.00;10.95;;;;;;;2.59;71.32;94428.31;5113340;28;20501;-71
2021/12/26 00:12:37;;;;;;;22.17;11.55;;;;;;;2.60;71.49;94415.41;5095350;28;20036;-71
2021/12/26 00:15:03;;;;;;;20.23;10.57;;;;;;;2.60;71.28;94429.97;5113362;28;20028;-71
2021/12/26 00:17:29;;;;;;;16.33;9.75;;;;;;;2.58;70.88;94426.66;5112088;28;20089;-71
2021/12/26 00:19:54;;;;;;;17.85;10.73;;;;;;;2.58;71.12;94417.22;5113208;28;20239;-71
2021/12/26 00:22:19;;;;;;;13.60;8.75;;;;;;;2.59;70.71;94424.03;5112118;28;20032;-70
2021/12/26 00:24:46;;;;;;;14.20;8.30;;;;;;;2.54;70.35;94430.34;5113485;28;20081;-71
2021/12/26 00:27:12;;;;;;;16.33;8.73;;;;;;;2.24;70.90;94403.78;5111873;28;20039;-70
2021/12/26 00:29:38;;;;;;;15.30;8.20;;;;;;;2.25;71.46;94412.28;5077969;28;20126;-71
2021/12/26 00:32:06;;;;;;;13.02;7.93;;;;;;;2.22;71.01;94417.59;5111948;28;20028;-70
2021/12/26 00:34:32;;;;;;;13.25;7.82;;;;;;;2.10;71.12;94416.56;5113380;28;20031;-70
2021/12/26 00:36:58;;;;;;;16.98;8.93;;;;;;;1.94;71.62;94424.25;5111772;28;20040;-71
2021/12/26 00:39:23;;;;;;;16.33;8.88;;;;;;;2.01;72.10;94427.31;5111768;28;20023;-71
2021/12/26 00:41:49;;;;;;;13.52;7.80;;;;;;;2.04;71.56;94431.44;5112893;28;20063;-70
2021/12/26 00:44:14;;;;;;;13.30;8.35;;;;;;;1.84;71.97;94432.53;5094539;28;20035;-70
2021/12/26 00:46:39;;;;;;;15.30;8.48;;;;;;;1.97;71.96;94420.69;5111645;28;20035;-70
2021/12/26 00:49:05;;;;;;;12.73;7.75;;;;;;;1.99;72.09;94413.75;5111611;28;20032;-70
2021/12/26 00:51:30;;;;;;;15.32;7.70;;;;;;;1.94;72.45;94420.88;5094513;28;20480;-70
2021/12/26 00:53:56;;;;;;;12.30;8.35;;;;;;;1.76;72.57;94428.66;5093688;28;20035;-71
2021/12/26 00:56:21;;;;;;;23.90;13.93;;;;;;;1.34;74.92;94427.50;5111514;28;20489;-70
2021/12/26 00:58:47;;;;;;;21.85;13.23;;;;;;;1.51;74.14;94436.03;5111442;28;20455;-71
2021/12/26 01:01:12;;;;;;;28.73;15.13;;;;;;;1.51;73.57;94412.97;5111187;28;20516;-71
2021/12/26 01:03:38;;;;;;;21.92;12.90;;;;;;;1.16;74.49;94412.28;5118253;27;20020;-70
2021/12/26 01:06:03;;;;;;;18.98;11.55;;;;;;;1.21;74.08;94411.13;5132914;27;20092;-70
2021/12/26 01:08:31;;;;;;;18.85;11.85;;;;;;;1.27;73.49;94418.47;5097583;27;20511;-70
2021/12/26 01:11:03;;;;;;;24.45;12.18;;;;;;;1.25;73.77;94420.28;5114903;27;20038;-70
2021/12/26 01:15:57;;;;;;;17.02;8.55;;;;;;;1.28;72.75;94420.16;5114874;27;20031;-70
2021/12/26 01:18:23;;;;;;;19.90;10.95;;;;;;;1.30;72.70;94422.63;5132767;27;20034;-70
2021/12/26 01:23:18;;;;;;;26.88;14.50;;;;;;;1.28;72.72;94422.72;5131608;27;20110;-70
2021/12/26 01:25:44;;;;;;;24.20;14.70;;;;;;;1.28;72.67;94407.34;5113818;27;20043;-71
2021/12/26 01:28:09;;;;;;;27.75;15.80;;;;;;;1.09;72.37;94399.00;5114127;27;20091;-70
2021/12/26 01:30:38;;;;;;;30.17;17.98;;;;;;;1.25;72.13;94419.47;5114126;27;20051;-70
2021/12/26 01:33:04;;;;;;;37.40;20.00;;;;;;;1.22;72.24;94410.22;5131081;27;20466;-70
2021/12/26 01:35:29;;;;;;;37.35;20.05;;;;;;;1.16;72.67;94415.66;5131186;27;20023;-71
2021/12/26 01:37:55;;;;;;;37.25;22.23;;;;;;;0.51;75.00;94412.19;5131292;27;20031;-70
2021/12/26 01:40:20;;;;;;;38.70;21.67;;;;;;;0.68;73.69;94399.38;5113890;27;20027;-70
2021/12/26 01:42:46;;;;;;;39.17;21.40;;;;;;;0.75;73.91;94394.78;5113984;27;20405;-70
2021/12/26 01:45:11;;;;;;;40.38;20.33;;;;;;;0.81;74.21;94397.88;5113693;27;20028;-70
2021/12/26 01:47:37;;;;;;;37.40;20.42;;;;;;;0.78;74.21;94386.94;5130965;27;20023;-70
2021/12/26 01:50:04;;;;;;;34.38;19.75;;;;;;;0.85;74.24;94383.19;5132034;27;20033;-71
2021/12/26 01:52:30;;;;;;;35.80;19.27;;;;;;;0.84;73.97;94394.31;5132018;27;20110;-70
2021/12/26 01:55:20;;;;;;;34.03;19.60;;;;;;;0.79;75.06;94399.66;5130769;27;20023;-70
2021/12/26 01:57:46;;;;;;;30.67;17.20;;;;;;;0.77;74.67;94396.34;5132404;27;20479;-70
2021/12/26 02:00:12;;;;;;;31.45;17.92;;;;;;;0.81;75.88;94390.19;5130678;27;20043;-70
2021/12/26 02:02:37;;;;;;;30.20;16.75;;;;;;;0.93;75.22;94395.59;5132118;27;20031;-70
2021/12/26 02:05:03;;;;;;;29.83;16.58;;;;;;;0.95;75.37;94388.63;5094362;28;20038;-70
2021/12/26 02:07:28;;;;;;;26.83;15.20;;;;;;;0.99;74.60;94390.13;5110409;28;20026;-70
2021/12/26 02:09:54;;;;;;;29.40;15.45;;;;;;;0.98;74.70;94384.19;5110213;28;20447;-70
2021/12/26 02:12:19;;;;;;;28.20;14.85;;;;;;;1.05;74.37;94371.91;5111423;28;20413;-70
2021/12/26 02:14:45;;;;;;;27.45;15.20;;;;;;;1.07;74.44;94383.72;5111629;28;20526;-71
2021/12/26 02:17:10;;;;;;;27.85;16.35;;;;;;;1.02;75.47;94384.84;5110116;28;20027;-71
2021/12/26 02:19:40;;;;;;;27.80;14.57;;;;;;;1.05;75.23;94384.69;5111640;28;20026;-70
2021/12/26 02:22:11;;;;;;;33.70;17.25;;;;;;;1.10;74.84;94377.63;5093159;28;20035;-71
2021/12/26 02:27:33;;;;;;;34.85;16.40;;;;;;;1.10;74.88;94380.16;5110237;28;20059;-70
2021/12/26 02:30:07;;;;;;;40.20;18.77;;;;;;;1.13;75.31;94376.63;5093677;28;20047;-70
2021/12/26 02:32:33;;;;;;;41.60;18.02;;;;;;;1.10;75.40;94377.63;5109845;28;20141;-70
2021/12/26 02:34:59;;;;;;;32.78;16.45;;;;;;;1.15;75.24;94380.75;5109806;28;20110;-70
2021/12/26 02:37:25;;;;;;;29.45;15.25;;;;;;;1.22;75.58;94376.94;5111114;28;20166;-71
2021/12/26 02:39:51;;;;;;;30.00;13.88;;;;;;;1.20;75.82;94378.78;5111436;28;20030;-70
2021/12/26 02:42:18;;;;;;;27.33;13.35;;;;;;;1.21;75.26;94380.44;5111071;28;20035;-71
2021/12/26 02:44:43;;;;;;;21.50;11.68;;;;;;;1.18;75.40;94385.72;5109875;28;20038;-70
2021/12/26 02:47:09;;;;;;;23.30;11.75;;;;;;;1.17;75.17;94386.63;5109721;28;20023;-71
2021/12/26 02:49:34;;;;;;;19.50;9.98;;;;;;;1.16;75.63;94382.41;5109971;28;20028;-71
2021/12/26 02:52:00;;;;;;;19.70;10.18;;;;;;;1.23;75.67;94386.28;5110862;28;20035;-71
2021/12/26 02:54:25;;;;;;;20.90;9.52;;;;;;;1.26;75.63;94368.22;5111304;28;20035;-71
2021/12/26 02:56:51;;;;;;;19.88;11.27;;;;;;;1.24;75.26;94362.34;5092729;28;20035;-72
2021/12/26 02:59:16;;;;;;;19.00;10.57;;;;;;;1.27;75.20;94374.97;5109786;28;20027;-71
2021/12/26 03:01:41;;;;;;;26.75;14.23;;;;;;;1.13;75.43;94356.97;5092815;28;20528;-71
2021/12/26 03:04:08;;;;;;;25.52;15.35;;;;;;;1.20;75.47;94362.59;5103646;28;20046;-71
2021/12/26 03:09:06;;;;;;;24.20;14.07;;;;;;;1.20;76.05;94363.44;5131654;27;20152;-71
2021/12/26 03:11:31;;;;;;;27.17;15.55;;;;;;;1.23;76.36;94368.38;5130158;28;20027;-70
2021/12/26 03:13:57;;;;;;;27.05;15.70;;;;;;;1.31;76.09;94373.91;5130094;28;20488;-70
2021/12/26 03:16:22;;;;;;;20.17;12.40;;;;;;;1.36;75.70;94378.78;5112998;28;20039;-70
2021/12/26 03:18:48;;;;;;;22.27;12.20;;;;;;;1.46;75.35;94366.31;5133685;27;20023;-70
2021/12/26 03:21:13;;;;;;;24.20;12.90;;;;;;;1.50;75.78;94362.66;5133910;27;20496;-70
2021/12/26 03:23:39;;;;;;;27.50;12.40;;;;;;;1.57;75.44;94371.69;5133802;27;20027;-70
2021/12/26 03:26:05;;;;;;;22.67;11.52;;;;;;;1.65;75.39;94361.84;5134866;27;20034;-71
2021/12/26 03:28:31;;;;;;;22.45;11.38;;;;;;;1.70;75.19;94370.09;5134727;27;20474;-71
2021/12/26 03:30:57;;;;;;;22.25;11.30;;;;;;;1.69;75.19;94388.09;5134944;27;20054;-71
2021/12/26 03:33:23;;;;;;;19.50;11.50;;;;;;;1.72;75.01;94386.19;5116472;27;20035;-70
2021/12/26 03:35:49;;;;;;;18.95;10.73;;;;;;;1.76;75.01;94374.88;5133813;27;20030;-71
2021/12/26 03:38:14;;;;;;;20.00;10.85;;;;;;;1.81;74.75;94373.78;5116355;27;20027;-70
2021/12/26 03:40:40;;;;;;;20.38;11.65;;;;;;;1.82;75.15;94365.22;5116415;27;20493;-71
2021/12/26 03:43:06;;;;;;;20.58;11.70;;;;;;;1.82;74.38;94365.22;5133248;27;20392;-70
2021/12/26 03:45:32;;;;;;;19.95;10.90;;;;;;;1.84;75.05;94363.38;5099238;27;20038;-70
2021/12/26 03:47:57;;;;;;;16.98;10.23;;;;;;;1.90;74.41;94363.88;5133188;27;20047;-70
2021/12/26 03:50:23;;;;;;;16.60;9.88;;;;;;;2.00;74.19;94376.97;5116000;27;20120;-70
2021/12/26 03:52:51;;;;;;;15.77;9.20;;;;;;;1.92;74.28;94390.22;5116155;27;20075;-70
2021/12/26 03:55:20;;;;;;;36.65;16.40;;;;;;;1.22;76.29;94373.56;5133124;27;20405;-70
2021/12/26 03:57:45;;;;;;;31.38;17.73;;;;;;;1.33;76.53;94389.19;5133152;27;20024;-70
2021/12/26 04:00:13;;;;;;;25.50;14.00;;;;;;;1.39;76.77;94386.28;5115953;27;20636;-70
2021/12/26 04:02:39;;;;;;;27.55;16.02;;;;;;;1.44;76.14;94379.19;5132900;27;20023;-70
2021/12/26 04:05:05;;;;;;;33.03;17.15;;;;;;;1.59;75.37;94390.34;5112056;28;20042;-70
2021/12/26 04:07:30;;;;;;;28.63;14.80;;;;;;;1.41;76.07;94376.78;5112363;28;20031;-71
2021/12/26 04:09:56;;;;;;;15.70;9.18;;;;;;;1.65;75.24;94379.78;5112110;28;20039;-70
2021/12/26 04:12:21;;;;;;;15.57;8.77;;;;;;;1.73;75.53;94387.03;5129361;27;20023;-70
2021/12/26 04:14:47;;;;;;;14.30;8.07;;;;;;;1.84;75.19;94391.53;5112454;28;20024;-70
2021/12/26 04:17:12;;;;;;;17.08;9.35;;;;;;;1.80;75.72;94396.00;5112478;28;20520;-70
2021/12/26 04:19:38;;;;;;;14.82;9.40;;;;;;;1.84;74.87;94394.09;5112043;28;20077;-70
2021/12/26 04:22:04;;;;;;;25.95;14.80;;;;;;;1.76;74.47;94394.53;5112140;28;20424;-70
2021/12/26 04:24:30;;;;;;;26.23;16.73;;;;;;;1.69;74.55;94375.28;5112005;28;20020;-70
2021/12/26 04:26:56;;;;;;;40.50;24.80;;;;;;;1.57;74.99;94387.03;5111900;28;20509;-70
2021/12/26 04:29:21;;;;;;;51.05;27.48;;;;;;;1.66;74.64;94391.66;5094755;28;20040;-70
2021/12/26 04:31:47;;;;;;;57.67;29.70;;;;;;;1.75;74.60;94388.56;5111972;28;20399;-70
2021/12/26 04:34:12;;;;;;;47.92;23.95;;;;;;;1.73;74.56;94387.03;5112956;28;20027;-70
2021/12/26 04:36:38;;;;;;;35.40;16.63;;;;;;;1.79;74.18;94392.63;5094914;28;20035;-71
2021/12/26 04:39:03;;;;;;;16.60;9.25;;;;;;;1.77;74.28;94383.38;5111806;28;20023;-71
2021/12/26 04:41:29;;;;;;;13.70;9.13;;;;;;;1.62;74.62;94390.19;5094699;28;20032;-71
2021/12/26 04:43:54;;;;;;;21.63;13.20;;;;;;;1.43;75.85;94390.34;5113129;28;20112;-71
2021/12/26 04:46:19;;;;;;;32.55;20.42;;;;;;;1.52;75.80;94397.53;5111480;28;20028;-71
2021/12/26 04:48:45;;;;;;;32.80;18.95;;;;;;;1.60;75.63;94386.06;5112906;28;20051;-71
2021/12/26 04:51:11;;;;;;;22.88;13.63;;;;;;;1.69;74.71;94390.66;5111574;28;20027;-70
2021/12/26 04:53:37;;;;;;;19.85;12.90;;;;;;;1.68;74.95;94377.03;5111467;28;20038;-71
2021/12/26 04:56:03;;;;;;;16.48;10.70;;;;;;;1.76;75.18;94402.22;5096671;27;20114;-71
2021/12/26 04:58:28;;;;;;;17.95;9.65;;;;;;;1.78;74.72;94403.81;5113849;27;20019;-71
2021/12/26 05:00:54;;;;;;;11.95;8.15;;;;;;;1.83;75.12;94410.38;5093566;28;20108;-71
2021/12/26 05:03:19;;;;;;;19.42;12.20;;;;;;;1.77;75.32;94398.75;5125585;27;20018;-71
2021/12/26 05:05:45;;;;;;;23.25;14.68;;;;;;;1.81;75.93;94412.19;5097681;27;20023;-70
2021/12/26 05:08:10;;;;;;;17.83;12.52;;;;;;;1.76;75.27;94408.16;5131430;27;20404;-71
2021/12/26 05:10:36;;;;;;;22.42;12.55;;;;;;;1.73;74.92;94398.09;5114660;27;20058;-71
2021/12/26 05:13:02;;;;;;;18.73;9.93;;;;;;;1.88;75.48;94411.78;5132699;27;20027;-71
2021/12/26 05:15:28;;;;;;;17.15;9.80;;;;;;;1.79;76.03;94402.88;5129942;27;20134;-71
2021/12/26 05:17:54;;;;;;;16.23;9.40;;;;;;;1.72;76.58;94401.56;5108730;27;20102;-71
2021/12/26 05:20:19;;;;;;;15.70;9.60;;;;;;;1.89;75.86;94405.75;5113522;27;20584;-71
2021/12/26 05:22:48;;;;;;;16.50;8.82;;;;;;;2.02;75.73;94408.47;5096465;27;20027;-71
2021/12/26 05:25:14;;;;;;;15.13;7.78;;;;;;;2.01;75.13;94411.94;5113530;27;20035;-71
2021/12/26 05:27:39;;;;;;;19.98;12.70;;;;;;;2.07;75.79;94416.72;5110579;27;20085;-71
2021/12/26 05:30:07;;;;;;;22.92;12.95;;;;;;;1.91;76.03;94410.78;5130937;27;20043;-71
2021/12/26 05:32:32;;;;;;;21.25;13.52;;;;;;;2.08;75.48;94420.09;5131432;27;20104;-71
2021/12/26 05:34:58;;;;;;;19.60;12.02;;;;;;;2.08;74.96;94438.88;5114121;27;20134;-71
2021/12/26 05:37:24;;;;;;;23.77;16.17;;;;;;;2.04;75.17;94422.03;5123701;27;20055;-71
2021/12/26 05:39:50;;;;;;;27.20;17.42;;;;;;;2.13;75.07;94428.38;5110227;28;20028;-71
2021/12/26 05:42:16;;;;;;;33.33;20.02;;;;;;;2.23;74.51;94432.06;5085204;28;20410;-71
2021/12/26 05:44:45;;;;;;;32.92;21.55;;;;;;;2.20;74.79;94427.94;5110491;28;20034;-71
2021/12/26 05:47:11;;;;;;;42.83;26.67;;;;;;;2.21;75.16;94439.03;5093519;28;20024;-71
2021/12/26 05:49:36;;;;;;;36.75;24.13;;;;;;;2.21;74.79;94433.88;5111844;27;20482;-71
2021/12/26 05:52:02;;;;;;;55.08;35.83;;;;;;;1.94;75.94;94436.25;5112720;27;20035;-71
2021/12/26 05:54:28;;;;;;;49.83;29.85;;;;;;;1.95;75.95;94428.50;5093764;28;20016;-71
2021/12/26 05:56:53;;;;;;;42.15;25.40;;;;;;;1.94;75.86;94439.63;5111554;28;20035;-71
2021/12/26 05:59:19;;;;;;;46.13;27.73;;;;;;;1.90;77.19;94424.53;5110248;28;20027;-71
2021/12/26 06:01:44;;;;;;;32.75;21.50;;;;;;;1.97;77.04;94423.25;5095902;28;20088;-71
2021/12/26 06:04:09;;;;;;;41.60;25.55;;;;;;;2.00;77.25;94416.22;5126139;27;20048;-71
2021/12/26 06:06:35;;;;;;;41.67;26.27;;;;;;;2.08;77.27;94412.41;5093195;28;20402;-71
2021/12/26 06:09:00;;;;;;;46.00;26.85;;;;;;;2.10;76.55;94411.41;5110120;28;20441;-71
2021/12/26 06:11:26;;;;;;;44.15;26.25;;;;;;;2.12;77.18;94408.78;5093530;28;20047;-72
2021/12/26 06:13:51;;;;;;;66.50;35.10;;;;;;;1.80;78.04;94398.56;5097631;28;20027;-70
2021/12/26 06:16:17;;;;;;;52.20;31.35;;;;;;;2.05;77.59;94394.66;5110134;28;20032;-71
2021/12/26 06:18:42;;;;;;;47.58;28.88;;;;;;;1.80;78.56;94385.78;5110044;28;20028;-71
2021/12/26 06:21:07;;;;;;;48.35;28.73;;;;;;;1.94;77.88;94385.00;5109921;28;20035;-70
2021/12/26 06:23:33;;;;;;;56.35;34.38;;;;;;;2.04;78.17;94388.72;5114883;28;20023;-71
2021/12/26 06:25:58;;;;;;;44.50;27.25;;;;;;;1.83;78.45;94377.09;5113339;28;20254;-69
2021/12/26 06:28:24;;;;;;;36.67;22.27;;;;;;;2.12;78.03;94378.03;5128416;28;20027;-71
2021/12/26 06:30:49;;;;;;;42.65;23.08;;;;;;;2.17;78.04;94356.34;5131692;27;20043;-69
2021/12/26 06:33:14;;;;;;;36.30;22.30;;;;;;;2.04;79.77;94350.28;5119254;27;20397;-69
2021/12/26 06:35:40;;;;;;;35.78;21.83;;;;;;;2.16;78.75;94364.94;5092649;28;20035;-69
2021/12/26 06:38:05;;;;;;;48.25;26.88;;;;;;;2.18;78.68;94362.31;5118354;28;20393;-69
2021/12/26 06:40:31;;;;;;;54.55;30.38;;;;;;;2.14;79.12;94366.75;5130674;27;20035;-70
2021/12/26 06:42:56;;;;;;;52.03;28.70;;;;;;;2.21;78.51;94362.94;5130269;28;20087;-70
2021/12/26 06:45:22;;;;;;;34.38;18.15;;;;;;;2.08;78.88;94349.19;5128591;28;20285;-69
2021/12/26 06:47:51;;;;;;;38.90;21.55;;;;;;;2.20;78.73;94356.19;5123013;28;20030;-69
2021/12/26 06:50:17;;;;;;;40.38;24.92;;;;;;;2.25;78.32;94361.03;5093170;28;20037;-70
2021/12/26 06:52:43;;;;;;;86.03;42.35;;;;;;;2.25;77.85;94350.78;5113947;27;20093;-68
2021/12/26 06:55:10;;;;;;;57.22;31.50;;;;;;;2.35;77.39;94343.38;5086558;28;20489;-68
2021/12/26 06:57:36;;;;;;;38.47;24.00;;;;;;;2.48;76.89;94357.16;5105510;27;20031;-70
2021/12/26 07:00:06;;;;;;;39.80;23.15;;;;;;;2.50;76.88;94357.88;5121959;27;20032;-69
2021/12/26 07:02:32;;;;;;;39.30;22.98;;;;;;;2.43;76.75;94341.19;5117548;27;20031;-70
2021/12/26 07:04:57;;;;;;;32.25;22.10;;;;;;;2.43;76.56;94366.84;5111549;27;20027;-69
2021/12/26 07:07:22;;;;;;;34.70;20.95;;;;;;;2.57;76.54;94369.44;5108214;28;20028;-72
2021/12/26 07:09:48;;;;;;;60.08;40.40;;;;;;;2.61;76.43;94404.22;5118616;27;20016;-68
2021/12/26 07:12:14;;;;;;;92.35;48.72;;;;;;;2.61;76.41;94406.78;5131918;27;20023;-68
2021/12/26 07:14:40;;;;;;;76.93;44.05;;;;;;;2.60;76.37;94407.72;5131870;27;20023;-68
2021/12/26 07:17:06;;;;;;;62.90;44.35;;;;;;;2.62;76.27;94399.94;5108955;27;20106;-69
2021/12/26 07:19:32;;;;;;;34.05;24.17;;;;;;;2.72;76.06;94423.31;5114825;27;20031;-68
2021/12/26 07:21:57;;;;;;;29.17;20.05;;;;;;;2.76;76.35;94414.50;5107252;27;20031;-69
2021/12/26 07:24:22;;;;;;;25.90;15.63;;;;;;;2.85;75.29;94430.19;5125186;27;20030;-69
2021/12/26 07:26:48;;;;;;;24.48;15.65;;;;;;;2.88;75.75;94444.59;5131631;27;20027;-69
2021/12/26 07:29:13;;;;;;;24.77;17.92;;;;;;;2.86;76.17;94418.19;5121633;27;20040;-68
2021/12/26 07:31:39;;;;;;;27.02;18.33;;;;;;;2.84;75.84;94430.25;5114291;28;20024;-68
2021/12/26 07:34:04;;;;;;;27.40;18.85;;;;;;;2.87;76.41;94419.81;5126368;27;20039;-70
2021/12/26 07:36:29;;;;;;;24.85;16.85;;;;;;;2.92;76.22;94433.22;5128073;27;20448;-68
2021/12/26 07:38:55;;;;;;;28.33;16.20;;;;;;;3.03;75.81;94442.84;5127266;27;20473;-69
2021/12/26 07:41:20;;;;;;;28.95;18.77;;;;;;;2.83;76.94;94410.66;5123895;27;20034;-68
2021/12/26 07:43:46;;;;;;;28.27;17.52;;;;;;;2.98;76.74;94435.44;5120415;27;20413;-71
2021/12/26 07:46:11;;;;;;;27.80;19.05;;;;;;;2.97;76.64;94415.00;5110208;27;20027;-72
2021/12/26 07:48:37;;;;;;;26.05;17.35;;;;;;;3.04;76.79;94432.50;5125165;27;20468;-72
2021/12/26 07:51:04;;;;;;;25.23;15.63;;;;;;;3.14;76.01;94431.03;5133003;27;20062;-72
2021/12/26 07:53:30;;;;;;;22.50;12.73;;;;;;;3.17;76.09;94435.16;5133078;27;20039;-71
2021/12/26 07:55:55;;;;;;;22.70;13.30;;;;;;;3.10;75.81;94405.66;5132424;27;20049;-78
2021/12/26 07:58:21;;;;;;;21.67;13.70;;;;;;;3.36;75.89;94428.00;5110579;27;20037;-71
2021/12/26 08:00:46;;;;;;;19.30;12.50;;;;;;;3.47;75.45;94423.94;5122845;27;20409;-69
2021/12/26 08:03:12;;;;;;;18.25;12.05;;;;;;;3.47;75.59;94424.78;5112703;27;20027;-71
2021/12/26 08:05:37;;;;;;;20.55;12.25;;;;;;;3.62;75.86;94412.72;5083378;27;20031;-72
2021/12/26 08:08:03;;;;;;;22.98;13.05;;;;;;;3.70;75.17;94419.97;5111207;27;20056;-69
2021/12/26 08:10:28;;;;;;;20.73;12.18;;;;;;;3.75;75.25;94412.78;5121557;27;20032;-71
2021/12/26 08:12:54;;;;;;;21.58;13.48;;;;;;;3.75;75.71;94410.22;5114503;27;20023;-71
2021/12/26 08:15:19;;;;;;;28.00;18.63;;;;;;;3.79;76.06;94407.38;5112356;27;20039;-69
2021/12/26 08:17:44;;;;;;;43.60;23.88;;;;;;;3.89;75.46;94388.81;5121903;27;20036;-71
2021/12/26 08:20:10;;;;;;;44.10;24.85;;;;;;;3.94;74.71;94392.72;5099022;27;20028;-70
2021/12/26 08:22:36;;;;;;;47.85;25.70;;;;;;;4.03;74.97;94391.31;5105409;27;20039;-71
2021/12/26 08:25:01;;;;;;;20.20;11.27;;;;;;;4.13;75.20;94371.00;5105947;28;20471;-71
2021/12/26 08:27:27;;;;;;;22.73;13.82;;;;;;;4.22;74.15;94354.97;5099076;28;20051;-71
2021/12/26 08:29:52;;;;;;;18.52;11.60;;;;;;;4.34;73.63;94349.00;5113830;27;20040;-69
2021/12/26 08:32:19;;;;;;;24.90;17.35;;;;;;;4.34;73.79;94356.72;5114892;27;20081;-71
2021/12/26 08:34:45;;;;;;;26.13;16.45;;;;;;;4.45;73.34;94351.69;5095045;28;20085;-69
2021/12/26 08:37:11;;;;;;;81.63;45.30;;;;;;;4.48;73.47;94368.69;5127062;27;20027;-70
2021/12/26 08:39:38;;;;;;;102.45;55.55;;;;;;;4.30;74.06;94370.72;5122923;27;20080;-71
2021/12/26 08:42:05;;;;;;;95.30;50.58;;;;;;;4.13;74.09;94376.13;5092225;27;20118;-70
2021/12/26 08:44:31;;;;;;;72.22;41.58;;;;;;;4.26;73.54;94376.97;5097722;27;20027;-70
2021/12/26 08:46:56;;;;;;;68.22;39.20;;;;;;;4.41;73.75;94381.13;5121430;27;20083;-70
2021/12/26 08:49:22;;;;;;;73.28;42.22;;;;;;;4.41;73.79;94395.75;5133948;27;20020;-69
2021/12/26 08:51:48;;;;;;;164.77;90.45;;;;;;;4.46;73.52;94396.28;5099871;27;20398;-70
2021/12/26 08:54:14;;;;;;;106.57;60.15;;;;;;;4.53;73.07;94365.81;5113066;27;20046;-69
2021/12/26 08:56:39;;;;;;;66.82;39.50;;;;;;;4.53;73.08;94345.22;5123845;27;20496;-69
2021/12/26 08:59:05;;;;;;;104.75;59.00;;;;;;;4.63;72.86;94377.97;5131791;27;20119;-69
2021/12/26 09:01:30;;;;;;;62.35;37.47;;;;;;;4.73;72.86;94354.19;5131359;27;20109;-70
2021/12/26 09:03:56;;;;;;;92.07;51.92;;;;;;;4.72;73.28;94366.25;5114106;27;20038;-70
2021/12/26 09:06:21;;;;;;;77.97;42.55;;;;;;;4.73;72.92;94355.00;5119378;27;20031;-69
2021/12/26 09:08:47;;;;;;;56.78;35.03;;;;;;;4.87;72.79;94349.75;5114578;27;20024;-69
2021/12/26 09:11:12;;;;;;;36.47;22.63;;;;;;;4.81;72.76;94333.91;5129981;27;20039;-69
2021/12/26 09:13:38;;;;;;;43.75;25.33;;;;;;;5.10;72.25;94370.56;5131117;27;20019;-69
2021/12/26 09:16:03;;;;;;;56.15;31.38;;;;;;;5.19;71.73;94372.50;5130565;27;20036;-69
2021/12/26 09:18:29;;;;;;;82.47;46.13;;;;;;;4.68;73.75;94375.91;5112772;27;20053;-69
2021/12/26 09:20:54;;;;;;;54.53;33.65;;;;;;;4.52;73.77;94370.13;5121201;27;20031;-68
2021/12/26 09:23:20;;;;;;;52.42;31.02;;;;;;;4.65;73.83;94370.97;5130170;27;20401;-69
2021/12/26 09:25:45;;;;;;;76.03;39.72;;;;;;;4.69;73.39;94384.47;5127617;27;20416;-71
2021/12/26 09:28:11;;;;;;;51.85;28.05;;;;;;;4.73;72.87;94362.72;5131186;27;20023;-68
2021/12/26 09:30:37;;;;;;;35.22;22.65;;;;;;;4.73;72.35;94359.34;5126587;27;20078;-68
2021/12/26 09:33:02;;;;;;;28.10;18.52;;;;;;;4.80;72.14;94370.88;5120340;27;20023;-69
2021/12/26 09:35:28;;;;;;;44.35;26.23;;;;;;;4.75;71.52;94375.50;5104059;27;20038;-70
2021/12/26 09:37:53;;;;;;;44.22;27.27;;;;;;;4.56;72.27;94378.47;5101312;27;20076;-70
2021/12/26 09:40:19;;;;;;;36.08;23.20;;;;;;;4.29;72.55;94374.22;5111302;27;20042;-70
2021/12/26 09:42:45;;;;;;;37.85;21.70;;;;;;;4.24;72.79;94366.81;5099432;27;20548;-70
2021/12/26 09:45:11;;;;;;;36.72;22.40;;;;;;;4.44;72.61;94380.09;5089487;27;20046;-71
2021/12/26 09:47:37;;;;;;;48.35;30.48;;;;;;;4.54;72.67;94378.59;5103956;27;20020;-70
2021/12/26 09:50:04;;;;;;;53.33;31.75;;;;;;;4.60;72.68;94382.50;5100529;28;20032;-72
2021/12/26 09:52:29;;;;;;;44.25;27.52;;;;;;;4.64;72.34;94395.03;5115242;27;20040;-71
2021/12/26 09:54:55;;;;;;;38.78;24.75;;;;;;;4.73;71.73;94388.47;5118846;27;20132;-70
2021/12/26 09:57:22;;;;;;;29.75;18.92;;;;;;;4.80;70.99;94389.72;5116995;27;20035;-69
2021/12/26 09:59:48;;;;;;;30.05;19.90;;;;;;;4.86;70.80;94381.56;5086515;27;20024;-69
2021/12/26 10:02:14;;;;;;;31.27;20.58;;;;;;;4.85;70.96;94387.66;5117908;27;20390;-69
2021/12/26 10:04:40;;;;;;;31.15;19.85;;;;;;;4.85;70.99;94390.22;5121903;27;20027;-70
2021/12/26 10:07:11;;;;;;;32.67;19.50;;;;;;;4.96;70.84;94380.94;5119606;27;20359;-73
2021/12/26 10:09:36;;;;;;;;;;;;;;;5.02;70.07;94385.69;5121760;27;20030;-72
2021/12/26 10:12:03;;;;;;;23.85;15.80;;;;;;;4.95;70.23;94367.25;5105588;27;19916;-73
2021/12/26 10:14:29;;;;;;;28.88;17.52;;;;;;;4.94;70.77;94370.75;5101472;28;20115;-72
2021/12/26 10:17:04;;;;;;;37.85;28.17;;;;;;;5.18;70.68;94385.47;5106090;28;20043;-72
2021/12/26 10:19:39;;;;;;;38.28;25.95;;;;;;;5.29;70.26;94383.81;5085874;28;20031;-70
2021/12/26 10:22:06;;;;;;;33.22;21.83;;;;;;;5.41;70.04;94381.31;5120789;27;20039;-70
2021/12/26 10:24:33;;;;;;;24.73;15.98;;;;;;;5.51;69.98;94379.72;5117923;28;20036;-69
2021/12/26 10:27:06;;;;;;;38.22;24.58;;;;;;;5.49;69.67;94390.16;5122809;27;20038;-69
2021/12/26 10:29:38;;;;;;;25.80;15.27;;;;;;;5.60;69.10;94369.63;5107728;27;20077;-69
2021/12/26 10:32:31;;;;;;;22.70;15.23;;;;;;;5.76;68.80;94379.66;5125140;27;20485;-69
2021/12/26 10:35:16;;;;;;;17.10;9.98;;;;;;;5.87;68.08;94388.38;5127089;27;20410;-69
2021/12/26 10:37:46;;;;;;;20.88;13.68;;;;;;;5.90;68.23;94399.28;5108987;27;20024;-69
2021/12/26 10:40:27;;;;;;;15.35;8.95;;;;;;;6.00;66.94;94413.22;5126365;27;20032;-70
2021/12/26 10:42:56;;;;;;;18.48;12.50;;;;;;;6.06;67.22;94406.81;5109454;27;20031;-70
2021/12/26 10:45:33;;;;;;;15.18;9.32;;;;;;;6.15;67.01;94402.75;5108711;27;20055;-69
2021/12/26 10:48:03;;;;;;;15.40;9.30;;;;;;;6.26;67.20;94392.47;5126534;27;20327;-69
2021/12/26 10:50:29;;;;;;;14.30;8.23;;;;;;;6.30;66.09;94373.28;5110245;27;20035;-69
2021/12/26 10:52:58;;;;;;;11.48;7.70;;;;;;;6.42;65.39;94380.09;5125874;27;20093;-70
2021/12/26 10:55:27;;;;;;;14.90;9.05;;;;;;;6.55;65.56;94372.28;5126014;27;20027;-70
2021/12/26 10:57:52;;;;;;;19.67;12.35;;;;;;;6.52;64.74;94349.28;5125783;27;20023;-70
2021/12/26 11:00:24;;;;;;;15.85;7.82;;;;;;;6.74;63.75;94355.41;5125344;27;20027;-72
2021/12/26 11:02:51;;;;;;;10.23;5.90;;;;;;;6.80;63.21;94363.53;5127481;27;20036;-69
2021/12/26 11:05:23;;;;;;;8.73;6.00;;;;;;;6.82;64.00;94356.47;5125093;27;20153;-71
2021/12/26 11:07:56;;;;;;;10.07;6.20;;;;;;;7.00;62.85;94369.78;5127194;27;20489;-70
2021/12/26 11:10:33;;;;;;;12.70;7.30;;;;;;;7.11;62.46;94366.38;5125588;27;20420;-70
2021/12/26 11:13:00;;;;;;;12.20;6.60;;;;;;;7.12;61.85;94362.84;5126058;27;20032;-69
2021/12/26 11:15:32;;;;;;;18.35;10.38;;;;;;;7.29;62.48;94387.41;5107991;27;20045;-70
2021/12/26 11:18:06;;;;;;;18.80;10.90;;;;;;;7.36;63.19;94391.19;5125327;27;20107;-70
2021/12/26 11:20:36;;;;;;;22.30;12.25;;;;;;;7.42;62.80;94384.72;5125161;27;20035;-71
2021/12/26 11:23:10;;;;;;;26.27;14.20;;;;;;;7.51;61.78;94395.16;5124003;27;20160;-70
2021/12/26 11:25:55;;;;;;;25.35;15.30;;;;;;;7.59;61.37;94381.63;5126545;27;20099;-70
2021/12/26 11:28:26;;;;;;;24.63;14.48;;;;;;;7.72;61.43;94384.09;5127040;27;20027;-72
2021/12/26 11:31:01;;;;;;;19.52;10.25;;;;;;;7.74;61.03;94379.59;5126518;27;20054;-70
2021/12/26 11:33:27;;;;;;;82.60;49.28;;;;;;;7.83;60.78;94376.31;5126294;27;20028;-72